Cheapside, Texas
Current Conditions -  °F | °C
As of 5:51 PM on Wednesday 28 Jan 2015 (Local Time) from KVCT Reporting Station
NA  
Wind Chill: 68°   Ceiling: NA
Heat Index: 68°   Visibility: 10mi
Dew Point: 60°   Wind: 12mph
Humidity: 76%   Direction: 160°SSE
Pressure: 30.12"   Gusts: NA
Location:  29.0941°N, 97.191°W
Report Text: KVCT 282351Z AUTO 16010KT 10SM 20/16 A3012 RMK AO2 SLP199 T02000156 10272 20200 $
Loading
Personal Weather Stations






























Interactive Weather Map New forecast layout! Learn more

10-Day Weather Forecast

Advertisements
Track Severe Weather on mobile